Ralston, Oklahoma
Current Conditions -  °F | °C
As of 8:53 AM on Wednesday 22 Oct 2014 (Local Time) from KPNC Reporting Station
Broken Clouds Broken Clouds  
Wind Chill: 63°   Ceiling: 6000
Heat Index: 63°   Visibility: 7mi
Dew Point: 58°   Wind: 6mph
Humidity: 84%   Direction: 160°SSE
Pressure: 30.14"   Gusts: NA
Location:  36.5°N, 96.73°W
Report Text: KPNC 221353Z AUTO 16005KT 7SM BKN060 17/14 A3014 RMK AO2 SLP198 T01720144
Loading
Personal Weather Stations






























Interactive Weather Map
Tropical Storm Tracking
New forecast layout! Learn more

10-Day Weather Forecast

Advertisements
Track Severe Weather on mobile